Time;durP1;ratioP1;P1;durP2;ratioP2;P2;SDS_P1;SDS_P2;PMS_P1;PMS_P2;Temp;Humidity;BMP_temperature;BMP_pressure;BME280_temperature;BME280_humidity;BME280_pressure;Samples;Min_cycle;Max_cycle;Signal;HPM_P1;HPM_P2
2023/03/30 00:02:21;;;;;;;12.30;9.30;;;10.50;99.90;;;;;;5067294;28;20060;-81
2023/03/30 00:04:48;;;;;;;11.13;8.48;;;10.60;99.90;;;;;;5067469;28;20040;-82
2023/03/30 00:07:14;;;;;;;11.02;8.13;;;10.60;99.90;;;;;;5069632;28;20122;-81
2023/03/30 00:09:42;;;;;;;11.95;8.68;;;10.60;99.90;;;;;;5068972;28;20428;-81
2023/03/30 00:12:12;;;;;;;9.73;8.20;;;10.60;99.90;;;;;;5067080;28;20056;-82
2023/03/30 00:14:40;;;;;;;12.73;8.35;;;10.60;99.90;;;;;;5051297;28;20105;-81
2023/03/30 00:17:07;;;;;;;12.63;8.55;;;10.70;99.90;;;;;;5065205;28;20104;-81
2023/03/30 00:19:36;;;;;;;12.13;7.88;;;10.70;99.90;;;;;;5050263;28;20079;-81
2023/03/30 00:22:06;;;;;;;10.68;7.85;;;10.70;99.90;;;;;;5067619;28;20502;-81
2023/03/30 00:24:32;;;;;;;9.38;7.82;;;10.70;99.90;;;;;;5064405;28;20060;-82
2023/03/30 00:26:58;;;;;;;7.75;6.93;;;10.70;99.90;;;;;;5067849;28;20032;-81
2023/03/30 00:29:23;;;;;;;9.90;7.43;;;10.70;99.90;;;;;;5067720;28;20105;-81
2023/03/30 00:31:49;;;;;;;9.25;7.22;;;10.70;99.90;;;;;;5068600;28;20525;-81
2023/03/30 00:34:15;;;;;;;10.93;6.90;;;10.70;99.90;;;;;;5066799;28;20343;-81
2023/03/30 00:36:40;;;;;;;9.68;7.05;;;11.00;99.90;;;;;;5066099;28;20072;-81
2023/03/30 00:39:07;;;;;;;13.75;7.13;;;10.60;99.90;;;;;;5066484;28;20608;-81
2023/03/30 00:41:34;;;;;;;10.20;6.15;;;10.60;99.90;;;;;;5067009;28;20044;-81
2023/03/30 00:44:05;;;;;;;8.95;6.82;;;10.50;99.90;;;;;;5065482;28;20051;-81
2023/03/30 00:46:31;;;;;;;7.85;6.32;;;10.50;99.90;;;;;;5065439;28;20056;-81
2023/03/30 00:49:03;;;;;;;7.63;6.60;;;10.40;99.90;;;;;;5061959;28;20037;-81
2023/03/30 00:51:33;;;;;;;7.70;6.82;;;10.40;99.90;;;;;;5066987;28;20052;-81
2023/03/30 00:54:06;;;;;;;9.63;5.70;;;10.30;99.90;;;;;;5067761;28;20083;-81
2023/03/30 00:56:33;;;;;;;8.63;6.75;;;10.30;99.90;;;;;;5067622;28;20049;-81
2023/03/30 00:59:00;;;;;;;7.75;6.53;;;10.20;99.90;;;;;;5068397;28;20826;-81
2023/03/30 01:01:27;;;;;;;12.88;6.80;;;10.30;99.90;;;;;;5065510;28;20175;-81
2023/03/30 01:03:56;;;;;;;8.73;6.60;;;10.20;99.90;;;;;;5068672;28;20162;-81
2023/03/30 01:06:24;;;;;;;9.13;7.53;;;10.20;99.90;;;;;;5068594;28;20384;-81
2023/03/30 01:08:51;;;;;;;12.02;6.43;;;10.30;99.90;;;;;;5068117;28;20040;-80
2023/03/30 01:11:17;;;;;;;10.13;6.75;;;10.30;99.90;;;;;;5045868;28;20459;-81
2023/03/30 01:13:51;;;;;;;9.50;6.47;;;10.30;99.90;;;;;;5065763;28;20045;-80
2023/03/30 01:16:44;;;;;;;8.68;6.47;;;10.30;99.90;;;;;;5066265;28;20045;-81
2023/03/30 01:19:29;;;;;;;8.40;5.80;;;10.40;99.90;;;;;;5051119;28;20044;-81
2023/03/30 01:22:16;;;;;;;10.10;6.32;;;10.40;99.90;;;;;;5064813;28;20040;-81
2023/03/30 01:25:02;;;;;;;7.93;6.38;;;10.40;99.90;;;;;;5047363;28;20044;-81
2023/03/30 01:27:47;;;;;;;8.40;6.50;;;10.40;99.90;;;;;;5053522;28;20119;-81
2023/03/30 01:30:50;;;;;;;8.63;6.53;;;10.50;99.90;;;;;;5067492;28;20044;-82
2023/03/30 01:33:55;;;;;;;9.75;6.18;;;10.50;99.90;;;;;;5060809;28;20148;-82
2023/03/30 01:37:13;;;;;;;12.07;6.25;;;10.50;99.90;;;;;;5072976;28;20070;-82
2023/03/30 01:39:46;;;;;;;9.77;6.30;;;10.50;99.90;;;;;;5048777;28;20135;-82
2023/03/30 01:42:40;;;;;;;9.48;6.00;;;10.60;99.90;;;;;;5068554;28;20048;-82
2023/03/30 01:45:24;;;;;;;10.98;6.45;;;10.60;99.90;;;;;;5069505;28;20489;-82
2023/03/30 01:47:59;;;;;;;12.48;6.05;;;10.70;99.90;;;;;;5072721;28;20654;-82
2023/03/30 01:50:41;;;;;;;11.52;5.90;;;10.70;99.90;;;;;;5068481;28;20498;-82
2023/03/30 01:53:19;;;;;;;9.00;5.50;;;10.80;99.90;;;;;;5069013;28;20055;-81
2023/03/30 01:55:58;;;;;;;11.43;6.05;;;10.90;99.90;;;;;;5088185;28;20048;-82
2023/03/30 01:58:43;;;;;;;8.30;5.15;;;10.90;99.90;;;;;;5066781;28;20040;-81
2023/03/30 02:01:13;;;;;;;7.70;4.90;;;11.00;99.90;;;;;;5087039;28;20410;-82
2023/03/30 02:06:45;;;;;;;7.53;5.30;;;11.00;99.90;;;;;;5060665;28;20083;-82
2023/03/30 02:09:14;;;;;;;8.60;5.63;;;10.90;99.90;;;;;;5086805;28;20086;-82
2023/03/30 02:11:45;;;;;;;8.52;6.07;;;11.00;99.90;;;;;;5087011;28;20050;-81
2023/03/30 02:14:13;;;;;;;8.55;5.80;;;10.90;99.90;;;;;;5087772;28;20032;-81
2023/03/30 02:16:53;;;;;;;7.07;6.10;;;11.20;99.90;;;;;;5069353;28;20044;-81
2023/03/30 02:19:18;;;;;;;7.32;5.78;;;10.90;99.90;;;;;;5067347;28;20044;-81
2023/03/30 02:21:45;;;;;;;7.30;6.10;;;10.90;99.90;;;;;;5069072;28;20049;-81
2023/03/30 02:24:18;;;;;;;12.35;5.80;;;10.80;99.90;;;;;;5086224;28;20087;-81
2023/03/30 02:26:46;;;;;;;7.55;5.82;;;10.80;99.90;;;;;;5049698;28;20123;-82
2023/03/30 02:29:13;;;;;;;8.57;5.75;;;10.90;99.90;;;;;;5086130;28;20172;-81
2023/03/30 02:31:39;;;;;;;7.07;5.78;;;10.80;99.90;;;;;;5086829;28;20502;-82
2023/03/30 02:34:32;;;;;;;10.23;5.25;;;10.80;99.90;;;;;;5067133;28;20047;-81
2023/03/30 02:37:19;;;;;;;8.85;5.57;;;10.80;99.90;;;;;;5053438;28;20132;-81
2023/03/30 02:40:12;;;;;;;12.68;6.07;;;10.80;99.90;;;;;;5051844;28;20048;-81
2023/03/30 02:43:05;;;;;;;8.18;5.65;;;10.80;99.90;;;;;;5069471;28;20127;-81
2023/03/30 02:46:09;;;;;;;9.23;5.82;;;10.80;99.90;;;;;;5087755;28;20390;-81
2023/03/30 02:48:52;;;;;;;8.32;4.97;;;10.80;99.90;;;;;;5067658;28;20078;-81
2023/03/30 02:51:50;;;;;;;6.85;5.15;;;10.70;99.90;;;;;;5069370;28;20433;-81
2023/03/30 02:54:27;;;;;;;10.15;4.75;;;10.70;99.90;;;;;;5065952;28;20052;-81
2023/03/30 02:57:05;;;;;;;6.72;4.95;;;10.60;99.90;;;;;;5051609;28;20367;-81
2023/03/30 02:59:40;;;;;;;6.13;4.55;;;10.60;99.90;;;;;;5067893;28;20040;-81
2023/03/30 03:02:18;;;;;;;6.88;4.68;;;10.60;99.90;;;;;;5068492;28;20172;-81
2023/03/30 03:04:46;;;;;;;6.78;4.55;;;10.60;99.90;;;;;;5086279;28;20874;-81
2023/03/30 03:07:13;;;;;;;7.25;4.32;;;10.90;99.90;;;;;;5085962;28;20455;-81
2023/03/30 03:09:38;;;;;;;5.60;4.50;;;10.50;99.90;;;;;;5066492;28;20148;-81
2023/03/30 03:12:04;;;;;;;6.32;4.63;;;10.50;99.90;;;;;;5068784;28;20122;-81
2023/03/30 03:14:33;;;;;;;7.10;4.60;;;10.50;99.90;;;;;;5068808;28;20115;-81
2023/03/30 03:16:59;;;;;;;6.90;4.28;;;10.40;99.90;;;;;;5071322;28;20517;-81
2023/03/30 03:19:24;;;;;;;7.68;4.10;;;10.40;99.90;;;;;;5048908;28;20037;-81
2023/03/30 03:21:50;;;;;;;5.40;3.90;;;10.40;99.90;;;;;;5046088;28;20044;-81
2023/03/30 03:24:18;;;;;;;7.03;4.18;;;10.40;99.90;;;;;;5089657;28;20126;-81
2023/03/30 03:26:44;;;;;;;5.85;4.03;;;10.40;99.90;;;;;;5073219;28;20544;-81
2023/03/30 03:29:10;;;;;;;6.82;4.10;;;10.50;99.90;;;;;;5088601;28;20072;-81
2023/03/30 03:31:36;;;;;;;10.13;3.92;;;10.50;99.90;;;;;;5082793;28;20086;-82
2023/03/30 03:34:02;;;;;;;5.03;3.35;;;10.60;99.90;;;;;;5071040;28;20360;-81
2023/03/30 03:36:29;;;;;;;5.07;4.13;;;10.70;99.90;;;;;;5089825;28;20051;-82
2023/03/30 03:38:55;;;;;;;6.25;3.63;;;10.80;99.90;;;;;;5071185;28;20047;-81
2023/03/30 03:41:20;;;;;;;6.28;3.67;;;10.90;99.90;;;;;;5073113;28;20047;-81
2023/03/30 03:43:46;;;;;;;7.20;4.13;;;10.90;99.90;;;;;;5070850;28;20046;-82
2023/03/30 03:46:15;;;;;;;5.50;3.95;;;11.10;99.90;;;;;;5089370;28;20040;-81
2023/03/30 03:48:41;;;;;;;8.25;3.83;;;11.20;99.90;;;;;;5088874;28;20048;-82
2023/03/30 03:51:08;;;;;;;6.25;4.03;;;11.30;99.90;;;;;;5088778;28;20051;-81
2023/03/30 03:53:35;;;;;;;8.95;3.88;;;11.30;99.90;;;;;;5071070;28;20036;-82
2023/03/30 03:56:01;;;;;;;5.90;3.55;;;11.40;99.90;;;;;;5089614;28;20482;-81
2023/03/30 03:58:27;;;;;;;4.45;3.13;;;11.40;99.90;;;;;;5063349;28;20044;-82
2023/03/30 04:00:58;;;;;;;6.05;3.92;;;11.60;99.90;;;;;;5089068;28;20048;-82
2023/03/30 04:03:23;;;;;;;5.53;2.72;;;11.70;99.90;;;;;;5071934;28;20041;-82
2023/03/30 04:05:49;;;;;;;7.55;2.92;;;11.80;99.90;;;;;;5070325;28;20660;-82
2023/03/30 04:08:16;;;;;;;6.63;2.88;;;11.90;99.90;;;;;;5070054;28;20036;-82
2023/03/30 04:10:43;;;;;;;4.03;2.70;;;12.00;99.90;;;;;;5087323;28;20055;-81
2023/03/30 04:13:09;;;;;;;6.13;2.80;;;12.10;99.90;;;;;;5067220;28;20123;-82
2023/03/30 04:15:35;;;;;;;4.60;2.60;;;12.10;99.90;;;;;;5077178;28;20044;-82
2023/03/30 04:18:00;;;;;;;7.65;3.13;;;12.10;99.90;;;;;;5088477;28;20405;-82
2023/03/30 04:20:28;;;;;;;5.70;2.53;;;12.10;99.90;;;;;;5071056;28;20051;-82
2023/03/30 04:22:55;;;;;;;6.50;2.85;;;12.20;99.90;;;;;;5070448;28;20102;-81
2023/03/30 04:25:27;;;;;;;6.32;2.90;;;12.20;99.90;;;;;;5070865;28;20044;-81
2023/03/30 04:27:54;;;;;;;8.80;3.08;;;12.10;99.90;;;;;;5069493;28;20282;-81
2023/03/30 04:30:21;;;;;;;5.95;3.38;;;12.10;99.90;;;;;;5070028;28;20089;-81
2023/03/30 04:33:01;;;;;;;6.93;3.28;;;12.10;99.90;;;;;;5054473;28;20059;-82
2023/03/30 04:35:31;;;;;;;5.80;3.00;;;12.10;99.90;;;;;;5070785;28;20146;-82
2023/03/30 04:37:59;;;;;;;7.60;3.70;;;12.00;99.90;;;;;;5068861;28;20048;-82
2023/03/30 04:40:25;;;;;;;6.47;3.50;;;12.10;99.90;;;;;;5089362;28;20044;-82
2023/03/30 04:42:51;;;;;;;10.60;3.50;;;11.90;99.90;;;;;;5087647;28;20076;-82
2023/03/30 04:45:17;;;;;;;9.68;3.83;;;12.00;99.90;;;;;;5068058;28;20543;-83
2023/03/30 04:47:44;;;;;;;5.57;3.33;;;11.60;99.90;;;;;;5068098;28;20490;-82
2023/03/30 04:50:10;;;;;;;5.28;3.53;;;11.50;99.90;;;;;;5088039;28;20039;-82
2023/03/30 04:52:36;;;;;;;7.47;4.20;;;11.50;99.90;;;;;;5088004;28;20055;-82
2023/03/30 04:55:02;;;;;;;6.30;3.45;;;11.40;99.90;;;;;;5069180;28;20040;-82
2023/03/30 04:57:27;;;;;;;7.15;4.05;;;11.40;99.90;;;;;;5070952;28;20055;-82
2023/03/30 04:59:53;;;;;;;7.57;3.85;;;11.30;99.90;;;;;;5070319;28;20052;-82
2023/03/30 05:02:18;;;;;;;7.35;4.45;;;11.30;99.90;;;;;;5067796;28;20052;-82
2023/03/30 05:04:44;;;;;;;6.88;4.03;;;11.20;99.90;;;;;;5070053;28;20076;-82
2023/03/30 05:07:10;;;;;;;5.30;3.70;;;11.20;99.90;;;;;;5070698;28;20043;-82
2023/03/30 05:09:35;;;;;;;6.28;4.00;;;11.20;99.90;;;;;;5068970;28;20065;-82
2023/03/30 05:12:03;;;;;;;6.05;4.55;;;11.20;99.90;;;;;;5074032;28;20064;-82
2023/03/30 05:14:29;;;;;;;7.15;4.00;;;11.30;99.90;;;;;;5069471;28;20486;-82
2023/03/30 05:16:54;;;;;;;6.05;3.88;;;11.20;99.90;;;;;;5066286;28;20048;-82
2023/03/30 05:19:20;;;;;;;6.30;3.80;;;11.20;99.90;;;;;;5068107;28;20347;-82
2023/03/30 05:21:46;;;;;;;8.25;4.30;;;11.20;99.90;;;;;;5069483;28;20122;-82
2023/03/30 05:24:12;;;;;;;7.13;4.50;;;11.40;99.90;;;;;;5069267;28;20082;-82
2023/03/30 05:26:38;;;;;;;11.35;6.03;;;11.20;99.90;;;;;;5088935;28;20406;-83
2023/03/30 05:29:05;;;;;;;8.30;4.75;;;11.20;99.90;;;;;;5069423;28;20054;-82
2023/03/30 05:31:31;;;;;;;6.88;5.38;;;11.20;99.90;;;;;;5068122;28;20036;-82
2023/03/30 05:33:56;;;;;;;8.60;4.95;;;11.20;99.90;;;;;;5067691;28;20096;-82
2023/03/30 05:36:22;;;;;;;4.82;3.72;;;11.20;99.90;;;;;;5068425;28;20832;-82
2023/03/30 05:38:47;;;;;;;5.55;4.20;;;11.10;99.90;;;;;;5069657;28;20055;-83
2023/03/30 05:41:16;;;;;;;7.60;4.03;;;11.20;99.90;;;;;;5068906;28;20252;-82
2023/03/30 05:43:42;;;;;;;5.53;3.65;;;11.20;99.90;;;;;;5086254;28;20043;-82
2023/03/30 05:46:07;;;;;;;5.80;3.40;;;11.20;99.90;;;;;;5067863;28;20427;-81
2023/03/30 05:48:35;;;;;;;5.57;3.22;;;11.20;99.90;;;;;;5069045;28;20513;-82
2023/03/30 05:51:01;;;;;;;7.97;3.53;;;11.20;99.90;;;;;;5069159;28;20439;-82
2023/03/30 05:53:27;;;;;;;5.07;3.15;;;11.30;99.90;;;;;;5067189;28;20067;-82
2023/03/30 05:55:52;;;;;;;5.95;3.00;;;11.40;99.90;;;;;;5063653;28;20051;-82
2023/03/30 05:58:18;;;;;;;6.03;3.83;;;11.40;99.90;;;;;;5050847;28;20461;-82
2023/03/30 06:00:46;;;;;;;4.75;3.08;;;11.40;99.90;;;;;;5066072;28;20461;-82
2023/03/30 06:03:13;;;;;;;6.32;2.60;;;11.40;99.90;;;;;;5069747;28;20052;-82
2023/03/30 06:05:40;;;;;;;7.80;3.17;;;11.40;99.90;;;;;;5053617;28;20063;-82
2023/03/30 06:08:07;;;;;;;5.43;3.20;;;11.40;99.90;;;;;;5068415;28;20155;-82
2023/03/30 06:10:33;;;;;;;4.60;3.58;;;11.40;99.90;;;;;;5069458;28;20684;-82
2023/03/30 06:13:00;;;;;;;6.55;3.55;;;11.40;99.90;;;;;;5086507;28;20039;-81
2023/03/30 06:15:26;;;;;;;6.60;3.22;;;11.30;99.90;;;;;;5069345;28;20044;-82
2023/03/30 06:17:52;;;;;;;6.75;3.00;;;11.40;99.90;;;;;;5087703;28;20036;-82
2023/03/30 06:20:20;;;;;;;6.68;3.38;;;11.40;99.90;;;;;;5088080;28;20087;-84
2023/03/30 06:22:47;;;;;;;6.38;3.63;;;11.40;99.90;;;;;;5070169;28;20079;-81
2023/03/30 06:25:13;;;;;;;6.13;3.20;;;11.40;99.90;;;;;;5069923;28;20119;-82
2023/03/30 06:27:41;;;;;;;7.72;4.28;;;11.40;99.90;;;;;;5085450;28;20578;-81
2023/03/30 06:30:11;;;;;;;7.00;3.88;;;11.40;99.90;;;;;;5087763;28;20131;-81
2023/03/30 06:32:37;;;;;;;8.10;4.07;;;11.40;99.90;;;;;;5088133;28;20047;-81
2023/03/30 06:35:03;;;;;;;5.85;3.65;;;11.40;99.90;;;;;;5083884;28;20052;-82
2023/03/30 06:37:35;;;;;;;7.53;4.45;;;11.50;99.90;;;;;;5087304;28;20056;-81
2023/03/30 06:40:06;;;;;;;6.00;3.95;;;11.50;99.90;;;;;;5067799;28;20044;-81
2023/03/30 06:42:32;;;;;;;6.53;4.07;;;11.50;99.90;;;;;;5051701;28;20127;-81
2023/03/30 06:44:57;;;;;;;12.25;5.15;;;11.50;99.90;;;;;;5051877;28;20055;-81
2023/03/30 06:47:23;;;;;;;12.52;7.50;;;11.60;99.90;;;;;;5069724;28;20097;-80
2023/03/30 06:49:49;;;;;;;7.00;3.25;;;11.60;99.90;;;;;;5089298;28;20394;-81
2023/03/30 06:52:14;;;;;;;9.10;3.05;;;11.80;99.90;;;;;;5091162;28;20052;-82
2023/03/30 06:54:40;;;;;;;8.02;3.03;;;11.80;99.90;;;;;;5090894;28;20036;-82
2023/03/30 06:57:06;;;;;;;7.85;2.97;;;11.90;99.90;;;;;;5072498;28;20036;-82
2023/03/30 06:59:32;;;;;;;6.45;2.50;;;12.00;99.90;;;;;;5056549;28;20044;-82
2023/03/30 07:02:02;;;;;;;7.47;2.70;;;12.10;99.90;;;;;;5090679;28;20044;-80
2023/03/30 07:04:28;;;;;;;7.65;2.67;;;12.10;99.90;;;;;;5054488;28;20044;-81
2023/03/30 07:06:56;;;;;;;7.80;3.25;;;12.20;99.90;;;;;;5071622;28;20093;-81
2023/03/30 07:09:25;;;;;;;8.73;3.05;;;12.20;99.90;;;;;;5072192;28;20065;-81
2023/03/30 07:11:51;;;;;;;8.73;2.83;;;12.30;99.90;;;;;;5091674;28;20044;-81
2023/03/30 07:14:16;;;;;;;9.13;3.13;;;12.30;99.90;;;;;;5090780;28;20089;-81
2023/03/30 07:16:42;;;;;;;8.25;3.22;;;12.50;99.90;;;;;;5090327;28;20062;-81
2023/03/30 07:19:08;;;;;;;7.53;2.42;;;12.40;99.90;;;;;;5091311;28;20039;-81
2023/03/30 07:21:34;;;;;;;11.68;2.97;;;12.30;99.90;;;;;;5091849;28;20050;-81
2023/03/30 07:24:00;;;;;;;12.13;3.05;;;12.30;99.90;;;;;;5072675;28;20067;-81
2023/03/30 07:26:27;;;;;;;8.52;2.58;;;12.30;99.90;;;;;;5090115;28;20059;-82
2023/03/30 07:28:55;;;;;;;8.98;2.53;;;12.30;99.90;;;;;;5090878;28;20087;-82
2023/03/30 07:31:22;;;;;;;12.43;3.50;;;12.30;99.90;;;;;;5072506;28;20040;-81
2023/03/30 07:33:47;;;;;;;10.13;2.50;;;12.50;99.90;;;;;;5072942;28;20070;-81
2023/03/30 07:36:14;;;;;;;12.95;3.40;;;12.40;99.90;;;;;;5068767;28;20490;-81
2023/03/30 07:38:39;;;;;;;10.65;3.10;;;12.40;99.90;;;;;;5070443;28;20114;-81
2023/03/30 07:41:11;;;;;;;10.63;4.32;;;12.80;99.90;;;;;;5069789;28;20395;-81
2023/03/30 07:43:39;;;;;;;9.43;3.10;;;12.50;99.90;;;;;;5070344;28;20056;-81
2023/03/30 07:46:06;;;;;;;14.30;3.28;;;12.40;99.90;;;;;;5070181;28;20127;-81
2023/03/30 07:48:31;;;;;;;8.00;2.78;;;12.40;99.90;;;;;;5068184;28;20501;-80
2023/03/30 07:51:02;;;;;;;10.27;3.35;;;12.40;99.90;;;;;;5068067;28;20049;-81
2023/03/30 07:53:28;;;;;;;15.35;3.55;;;12.40;99.90;;;;;;5068274;28;20055;-81
2023/03/30 07:55:54;;;;;;;11.75;3.78;;;12.40;99.90;;;;;;5069355;28;20045;-81
2023/03/30 07:58:20;;;;;;;8.02;2.97;;;12.40;99.90;;;;;;5050192;28;20036;-81
2023/03/30 08:00:47;;;;;;;8.98;3.00;;;12.30;99.90;;;;;;5068717;28;20044;-80
2023/03/30 08:03:13;;;;;;;10.27;3.22;;;12.30;99.90;;;;;;5051378;28;20087;-81
2023/03/30 08:05:38;;;;;;;11.75;3.53;;;12.30;99.90;;;;;;5069258;28;20054;-81
2023/03/30 08:08:04;;;;;;;9.82;3.38;;;12.30;99.90;;;;;;5069062;28;20049;-81
2023/03/30 08:10:30;;;;;;;12.70;4.00;;;12.40;99.90;;;;;;5069892;28;20078;-81
2023/03/30 08:12:55;;;;;;;13.05;4.53;;;12.20;99.90;;;;;;5067717;28;20049;-80
2023/03/30 08:15:21;;;;;;;12.20;3.45;;;12.30;99.90;;;;;;5069089;28;20066;-81
2023/03/30 08:17:46;;;;;;;17.23;3.80;;;12.60;99.90;;;;;;5069736;28;20101;-81
2023/03/30 08:20:12;;;;;;;15.25;3.92;;;12.20;99.90;;;;;;5051807;28;20151;-81
2023/03/30 08:22:38;;;;;;;12.15;3.47;;;12.30;99.90;;;;;;5068526;28;20131;-81
2023/03/30 08:25:04;;;;;;;15.98;4.35;;;12.30;99.90;;;;;;5068884;28;20068;-81
2023/03/30 08:27:30;;;;;;;10.18;2.95;;;12.30;99.90;;;;;;5051869;28;20529;-80
2023/03/30 08:29:56;;;;;;;10.82;3.13;;;12.30;99.90;;;;;;5066274;28;20131;-81
2023/03/30 08:32:21;;;;;;;14.73;4.20;;;12.20;99.90;;;;;;5063210;28;20127;-81
2023/03/30 08:34:47;;;;;;;13.63;4.53;;;12.20;99.90;;;;;;5075827;28;20445;-81
2023/03/30 08:37:12;;;;;;;11.63;3.85;;;12.10;99.90;;;;;;5062533;28;20518;-81
2023/03/30 08:39:38;;;;;;;17.15;4.43;;;12.00;99.90;;;;;;5065602;28;20044;-81
2023/03/30 08:42:23;;;;;;;18.55;3.92;;;12.00;99.90;;;;;;5067075;28;20477;-81
2023/03/30 08:44:53;;;;;;;18.08;3.97;;;12.00;99.90;;;;;;5066177;28;20120;-81
2023/03/30 08:47:28;;;;;;;14.07;3.70;;;12.00;99.90;;;;;;5066425;28;20407;-82
2023/03/30 08:50:33;;;;;;;16.48;3.90;;;12.00;99.90;;;;;;5066008;28;20049;-81
2023/03/30 08:52:59;;;;;;;16.92;4.25;;;12.00;99.90;;;;;;5066528;28;20118;-81
2023/03/30 08:56:01;;;;;;;17.08;4.07;;;12.00;99.90;;;;;;5052043;28;20498;-80
2023/03/30 08:58:38;;;;;;;17.83;4.32;;;12.00;99.90;;;;;;5026014;28;20387;-81
2023/03/30 09:01:20;;;;;;;10.23;3.38;;;12.10;99.90;;;;;;5069224;28;20044;-80
2023/03/30 09:04:06;;;;;;;16.25;3.65;;;12.20;99.90;;;;;;5068686;28;20044;-81
2023/03/30 09:06:44;;;;;;;15.65;4.63;;;12.10;99.90;;;;;;5067327;28;20045;-81
2023/03/30 09:09:14;;;;;;;19.63;4.13;;;12.10;99.90;;;;;;5067278;28;20060;-81
2023/03/30 09:11:40;;;;;;;18.85;4.22;;;12.10;99.90;;;;;;5050122;28;20059;-81
2023/03/30 09:14:15;;;;;;;11.32;3.38;;;12.20;99.90;;;;;;5067528;28;20048;-81
2023/03/30 09:16:51;;;;;;;12.98;3.78;;;12.40;99.90;;;;;;5068850;28;20067;-81
2023/03/30 09:19:57;;;;;;;16.73;3.05;;;12.60;99.90;;;;;;5068997;28;20044;-81
2023/03/30 09:22:36;;;;;;;11.55;3.30;;;12.80;99.90;;;;;;5064366;28;20218;-81
2023/03/30 09:25:11;;;;;;;12.70;3.00;;;13.10;99.90;;;;;;5067475;28;20706;-80
2023/03/30 09:27:55;;;;;;;15.60;3.20;;;13.30;99.90;;;;;;5065679;28;20052;-80
2023/03/30 09:30:29;;;;;;;19.85;3.83;;;13.50;99.90;;;;;;5067511;28;20044;-78
2023/03/30 09:33:03;;;;;;;18.02;5.35;;;13.50;99.90;;;;;;5050537;28;20060;-81
2023/03/30 09:36:02;;;;;;;12.00;3.30;;;13.40;99.90;;;;;;5066984;28;20115;-80
2023/03/30 09:38:31;;;;;;;14.25;3.08;;;13.30;99.90;;;;;;5067446;28;20075;-81
2023/03/30 09:41:09;;;;;;;11.52;2.90;;;13.30;99.90;;;;;;5066302;28;20427;-80
2023/03/30 09:43:44;;;;;;;13.10;3.30;;;13.30;99.90;;;;;;5067125;28;20090;-81
2023/03/30 09:46:12;;;;;;;20.35;5.15;;;13.50;99.90;;;;;;5068492;28;20084;-80
2023/03/30 09:48:45;;;;;;;14.30;4.75;;;13.60;99.90;;;;;;5067285;28;20692;-81
2023/03/30 09:51:24;;;;;;;18.60;4.63;;;14.10;99.90;;;;;;5066504;28;20055;-81
2023/03/30 09:53:56;;;;;;;8.43;2.55;;;14.00;99.90;;;;;;5066786;28;20461;-80
2023/03/30 09:56:27;;;;;;;11.25;2.33;;;14.00;99.90;;;;;;5068681;28;20079;-81
2023/03/30 09:58:53;;;;;;;9.40;2.40;;;13.90;99.90;;;;;;5063844;28;20049;-80
2023/03/30 10:01:33;;;;;;;7.40;2.42;;;13.90;99.90;;;;;;5066914;28;20037;-80
2023/03/30 10:04:10;;;;;;;9.57;2.22;;;13.80;99.90;;;;;;5066987;28;20051;-80
2023/03/30 10:06:46;;;;;;;10.63;2.72;;;13.70;99.90;;;;;;5067082;28;20147;-80
2023/03/30 10:09:13;;;;;;;6.78;2.10;;;13.60;99.90;;;;;;5067436;28;20044;-80
2023/03/30 10:11:47;;;;;;;10.98;2.45;;;13.40;99.90;;;;;;5068076;28;20044;-81
2023/03/30 10:14:27;;;;;;;7.35;2.15;;;13.40;99.90;;;;;;5067495;28;20067;-80
2023/03/30 10:16:54;;;;;;;8.57;1.80;;;13.40;99.90;;;;;;5066763;28;20055;-80
2023/03/30 10:19:21;;;;;;;10.82;2.55;;;13.50;99.90;;;;;;5064941;28;20048;-80
2023/03/30 10:21:51;;;;;;;11.32;2.47;;;13.50;99.90;;;;;;5067116;28;20398;-80
2023/03/30 10:24:24;;;;;;;7.78;1.85;;;13.60;99.90;;;;;;5064941;28;20048;-81
2023/03/30 10:27:12;;;;;;;8.57;1.92;;;13.70;99.90;;;;;;5062814;28;20076;-81
2023/03/30 10:29:43;;;;;;;10.07;2.50;;;13.80;99.90;;;;;;5064417;28;20044;-82
2023/03/30 10:32:28;;;;;;;10.90;2.40;;;13.80;99.90;;;;;;5068110;28;20066;-81
2023/03/30 10:34:56;;;;;;;10.90;2.40;;;13.80;99.90;;;;;;5065669;28;20044;-82
2023/03/30 10:37:31;;;;;;;11.93;3.00;;;13.90;99.90;;;;;;5065309;28;20048;-81
2023/03/30 10:39:58;;;;;;;7.07;1.85;;;13.90;99.90;;;;;;5058372;28;20166;-82
2023/03/30 10:42:27;;;;;;;9.15;2.53;;;14.00;99.90;;;;;;5060503;28;20057;-81
2023/03/30 10:45:05;;;;;;;8.60;1.90;;;14.10;99.90;;;;;;5065774;28;20110;-83
2023/03/30 10:47:48;;;;;;;10.20;1.85;;;14.10;99.90;;;;;;5066265;28;20044;-81
2023/03/30 10:50:39;;;;;;;9.15;2.47;;;14.10;99.90;;;;;;5066780;28;20477;-81
2023/03/30 10:53:28;;;;;;;7.30;1.95;;;14.10;99.90;;;;;;5066095;28;20059;-81
2023/03/30 10:56:12;;;;;;;7.18;1.90;;;14.30;99.90;;;;;;5048614;28;20044;-81
2023/03/30 10:59:05;;;;;;;6.60;1.42;;;14.50;99.90;;;;;;5066357;28;20098;-81
2023/03/30 11:01:45;;;;;;;8.27;1.95;;;14.60;99.90;;;;;;5063308;28;20681;-82
2023/03/30 11:04:22;;;;;;;8.88;2.13;;;14.60;99.90;;;;;;5065727;28;20394;-82
2023/03/30 11:06:51;;;;;;;11.57;2.33;;;14.70;99.90;;;;;;5065759;28;20052;-82
2023/03/30 11:09:23;;;;;;;8.45;2.10;;;14.60;99.90;;;;;;5065908;28;20051;-81
2023/03/30 11:11:55;;;;;;;9.95;2.60;;;15.40;99.90;;;;;;5066963;28;20510;-82
2023/03/30 11:14:31;;;;;;;10.55;2.72;;;14.60;99.90;;;;;;5064850;28;20116;-81
2023/03/30 11:17:03;;;;;;;14.35;2.40;;;14.60;99.90;;;;;;5067078;28;20052;-81
2023/03/30 11:19:45;;;;;;;8.20;1.92;;;14.70;99.90;;;;;;5067134;28;20398;-81
2023/03/30 11:22:26;;;;;;;12.82;2.28;;;14.80;99.90;;;;;;5066964;28;20040;-81
2023/03/30 11:24:56;;;;;;;7.80;2.30;;;14.90;99.90;;;;;;5066496;28;20044;-81
2023/03/30 11:27:31;;;;;;;9.55;2.78;;;14.90;99.90;;;;;;5049024;28;20102;-81
2023/03/30 11:30:08;;;;;;;11.18;1.83;;;15.00;99.90;;;;;;5048237;28;20087;-81
2023/03/30 11:32:46;;;;;;;16.75;3.13;;;15.10;99.90;;;;;;5065113;28;20197;-80
2023/03/30 11:35:42;;;;;;;12.38;2.80;;;15.30;99.90;;;;;;5065122;28;20127;-80
2023/03/30 11:38:14;;;;;;;11.93;2.33;;;15.30;99.90;;;;;;5089596;28;20144;-80
2023/03/30 11:40:42;;;;;;;14.25;3.33;;;15.20;99.90;;;;;;5056049;28;20502;-80
2023/03/30 11:43:10;;;;;;;12.55;3.30;;;15.40;99.90;;;;;;5072830;28;20095;-80
2023/03/30 11:45:51;;;;;;;14.52;2.75;;;15.40;99.90;;;;;;5072659;28;20044;-80
2023/03/30 11:48:37;;;;;;;10.63;2.40;;;15.40;99.90;;;;;;5072042;28;20048;-80
2023/03/30 11:51:34;;;;;;;10.77;2.58;;;15.40;99.90;;;;;;5071520;28;20101;-82
2023/03/30 11:54:15;;;;;;;13.07;2.97;;;15.50;99.90;;;;;;5071996;28;20052;-81
2023/03/30 11:56:58;;;;;;;9.07;2.30;;;15.50;99.90;;;;;;5090616;28;20086;-81
2023/03/30 12:00:08;;;;;;;13.73;3.15;;;15.40;99.90;;;;;;5090453;28;20083;-81
2023/03/30 12:03:00;;;;;;;10.32;2.58;;;15.30;99.90;;;;;;5072374;28;20123;-81
2023/03/30 12:05:36;;;;;;;13.18;3.38;;;15.30;99.90;;;;;;5070704;28;20105;-81
2023/03/30 12:08:15;;;;;;;9.77;3.17;;;15.20;99.90;;;;;;5071527;28;20447;-82
2023/03/30 12:10:43;;;;;;;12.43;2.70;;;15.10;99.90;;;;;;5067979;28;20048;-81
2023/03/30 12:13:15;;;;;;;9.20;2.50;;;15.20;99.90;;;;;;5035572;28;20048;-81
2023/03/30 12:15:59;;;;;;;17.27;5.80;;;15.40;99.90;;;;;;5034401;28;20044;-81
2023/03/30 12:18:30;;;;;;;11.00;2.90;;;15.70;99.90;;;;;;5089957;28;20505;-80
2023/03/30 12:21:05;;;;;;;13.57;3.10;;;15.30;99.90;;;;;;5071993;28;20048;-81
2023/03/30 12:23:53;;;;;;;11.45;3.28;;;15.30;99.90;;;;;;5068246;28;20079;-81
2023/03/30 12:26:26;;;;;;;12.55;3.00;;;15.30;99.90;;;;;;5077167;28;20084;-81
2023/03/30 12:28:58;;;;;;;12.32;2.92;;;15.50;99.90;;;;;;5089451;28;20040;-81
2023/03/30 12:31:57;;;;;;;12.60;2.85;;;15.60;99.90;;;;;;5071861;28;20047;-81
2023/03/30 12:34:26;;;;;;;10.93;2.83;;;15.80;99.90;;;;;;5071716;28;20059;-81
2023/03/30 12:37:11;;;;;;;9.60;2.40;;;15.70;99.90;;;;;;5102791;28;20083;-81
2023/03/30 12:39:47;;;;;;;12.48;3.00;;;15.70;99.90;;;;;;5088993;28;20043;-80
2023/03/30 12:42:38;;;;;;;10.30;2.20;;;15.60;99.90;;;;;;5072235;28;20120;-80
2023/03/30 12:45:32;;;;;;;10.13;2.70;;;15.60;99.90;;;;;;5069580;28;20050;-80
2023/03/30 12:48:26;;;;;;;10.27;3.03;;;15.70;99.90;;;;;;5071137;28;20059;-80
2023/03/30 12:51:12;;;;;;;12.82;2.60;;;15.70;99.90;;;;;;5070305;28;20458;-80
2023/03/30 12:53:56;;;;;;;12.77;3.33;;;15.70;99.90;;;;;;5050163;28;20415;-81
2023/03/30 12:56:47;;;;;;;11.55;2.85;;;15.60;99.90;;;;;;5071055;28;20056;-80
2023/03/30 12:59:24;;;;;;;12.60;3.13;;;15.50;99.90;;;;;;5089458;28;20154;-82
2023/03/30 13:02:12;;;;;;;12.73;3.75;;;15.50;99.90;;;;;;5086046;28;20505;-80
2023/03/30 13:04:40;;;;;;;17.70;3.00;;;15.30;99.90;;;;;;5087290;28;20471;-81
2023/03/30 13:07:11;;;;;;;17.50;2.95;;;15.20;99.90;;;;;;5086947;28;20122;-81
2023/03/30 13:09:52;;;;;;;13.73;3.30;;;14.90;99.90;;;;;;5067494;28;20094;-80
2023/03/30 13:12:32;;;;;;;12.45;2.67;;;15.00;99.90;;;;;;5054431;28;20059;-82
2023/03/30 13:15:30;;;;;;;13.43;3.17;;;15.10;99.90;;;;;;5053693;28;20048;-81